sensor_id;sensor_type;location;lat;lon;timestamp;pressure;altitude;pressure_sealevel;temperature;humidity
68456;BME280;55437;55.046;38.838;2023-05-20T00:00:28;100907.22;;;10.93;58.40
68456;BME280;55437;55.046;38.838;2023-05-20T00:02:54;100909.00;;;10.88;58.83
68456;BME280;55437;55.046;38.838;2023-05-20T00:05:20;100897.19;;;10.78;58.63
68456;BME280;55437;55.046;38.838;2023-05-20T00:07:45;100894.66;;;10.75;58.79
68456;BME280;55437;55.046;38.838;2023-05-20T00:10:11;100902.47;;;10.69;59.32
68456;BME280;55437;55.046;38.838;2023-05-20T00:12:38;100895.75;;;10.62;59.36
68456;BME280;55437;55.046;38.838;2023-05-20T00:15:04;100893.22;;;10.59;59.36
68456;BME280;55437;55.046;38.838;2023-05-20T00:17:30;100891.66;;;10.50;59.95
68456;BME280;55437;55.046;38.838;2023-05-20T00:19:56;100890.84;;;10.45;59.79
68456;BME280;55437;55.046;38.838;2023-05-20T00:22:22;100890.88;;;10.43;60.04
68456;BME280;55437;55.046;38.838;2023-05-20T00:24:48;100898.63;;;10.39;60.03
68456;BME280;55437;55.046;38.838;2023-05-20T00:27:13;100892.72;;;10.34;60.07
68456;BME280;55437;55.046;38.838;2023-05-20T00:29:39;100892.78;;;10.29;60.67
68456;BME280;55437;55.046;38.838;2023-05-20T00:32:05;100898.88;;;10.24;60.48
68456;BME280;55437;55.046;38.838;2023-05-20T00:34:31;100893.78;;;10.21;60.60
68456;BME280;55437;55.046;38.838;2023-05-20T00:36:57;100894.66;;;10.18;60.88
68456;BME280;55437;55.046;38.838;2023-05-20T00:39:23;100890.44;;;10.13;60.94
68456;BME280;55437;55.046;38.838;2023-05-20T00:41:49;100895.56;;;10.13;60.93
68456;BME280;55437;55.046;38.838;2023-05-20T00:44:15;100898.97;;;10.13;61.07
68456;BME280;55437;55.046;38.838;2023-05-20T00:46:45;100891.34;;;10.07;61.22
68456;BME280;55437;55.046;38.838;2023-05-20T00:49:12;100891.38;;;10.05;61.07
68456;BME280;55437;55.046;38.838;2023-05-20T00:51:38;100898.22;;;10.05;61.04
68456;BME280;55437;55.046;38.838;2023-05-20T00:54:04;100899.09;;;10.04;61.41
68456;BME280;55437;55.046;38.838;2023-05-20T00:56:30;100888.84;;;10.02;61.24
68456;BME280;55437;55.046;38.838;2023-05-20T00:58:56;100894.03;;;9.99;61.49
68456;BME280;55437;55.046;38.838;2023-05-20T01:01:22;100897.47;;;9.98;61.93
68456;BME280;55437;55.046;38.838;2023-05-20T01:03:48;100892.34;;;9.97;61.67
68456;BME280;55437;55.046;38.838;2023-05-20T01:06:13;100899.19;;;9.95;62.12
68456;BME280;55437;55.046;38.838;2023-05-20T01:08:39;100907.75;;;9.94;61.77
68456;BME280;55437;55.046;38.838;2023-05-20T01:11:07;100897.59;;;9.86;61.99
68456;BME280;55437;55.046;38.838;2023-05-20T01:13:42;100900.22;;;9.80;62.10
68456;BME280;55437;55.046;38.838;2023-05-20T01:16:10;100898.56;;;9.78;62.09
68456;BME280;55437;55.046;38.838;2023-05-20T01:18:38;100900.22;;;9.80;62.32
68456;BME280;55437;55.046;38.838;2023-05-20T01:21:06;100904.34;;;9.93;61.91
68456;BME280;55437;55.046;38.838;2023-05-20T01:23:38;100903.25;;;10.13;61.58
68456;BME280;55437;55.046;38.838;2023-05-20T01:26:08;100901.28;;;10.34;60.99
68456;BME280;55437;55.046;38.838;2023-05-20T01:28:35;100900.03;;;10.61;60.46
68456;BME280;55437;55.046;38.838;2023-05-20T01:31:04;100892.75;;;10.88;59.81
68456;BME280;55437;55.046;38.838;2023-05-20T01:33:35;100888.88;;;11.14;59.01
68456;BME280;55437;55.046;38.838;2023-05-20T01:36:02;100902.09;;;11.42;58.79
68456;BME280;55437;55.046;38.838;2023-05-20T01:38:29;100905.84;;;11.71;58.13
68456;BME280;55437;55.046;38.838;2023-05-20T01:40:56;100899.41;;;11.93;57.27
68456;BME280;55437;55.046;38.838;2023-05-20T01:43:23;100899.59;;;12.25;56.07
68456;BME280;55437;55.046;38.838;2023-05-20T01:45:49;100891.28;;;12.51;55.75
68456;BME280;55437;55.046;38.838;2023-05-20T01:48:15;100905.84;;;12.89;54.70
68456;BME280;55437;55.046;38.838;2023-05-20T01:50:42;100904.28;;;13.18;53.95
68456;BME280;55437;55.046;38.838;2023-05-20T01:53:09;100900.19;;;13.42;53.26
68456;BME280;55437;55.046;38.838;2023-05-20T01:55:35;100901.03;;;13.75;52.46
68456;BME280;55437;55.046;38.838;2023-05-20T01:58:01;100906.28;;;14.01;51.65
68456;BME280;55437;55.046;38.838;2023-05-20T02:00:27;100900.22;;;14.31;51.21
68456;BME280;55437;55.046;38.838;2023-05-20T02:02:53;100900.91;;;14.66;50.21
68456;BME280;55437;55.046;38.838;2023-05-20T02:05:18;100898.63;;;14.83;49.42
68456;BME280;55437;55.046;38.838;2023-05-20T02:07:44;100898.31;;;15.19;49.04
68456;BME280;55437;55.046;38.838;2023-05-20T02:10:11;100891.84;;;15.57;48.04
68456;BME280;55437;55.046;38.838;2023-05-20T02:12:37;100896.28;;;16.00;46.91
68456;BME280;55437;55.046;38.838;2023-05-20T02:15:04;100890.84;;;16.29;46.11
68456;BME280;55437;55.046;38.838;2023-05-20T02:17:31;100890.41;;;16.62;45.51
68456;BME280;55437;55.046;38.838;2023-05-20T02:20:16;100898.88;;;17.09;44.96
68456;BME280;55437;55.046;38.838;2023-05-20T02:22:42;100898.81;;;17.31;44.35
68456;BME280;55437;55.046;38.838;2023-05-20T02:25:10;100906.47;;;17.74;43.54
68456;BME280;55437;55.046;38.838;2023-05-20T02:27:36;100900.50;;;18.10;42.90
68456;BME280;55437;55.046;38.838;2023-05-20T02:30:03;100899.41;;;18.51;42.32
68456;BME280;55437;55.046;38.838;2023-05-20T02:32:30;100899.88;;;18.78;41.86
68456;BME280;55437;55.046;38.838;2023-05-20T02:34:58;100896.13;;;19.18;40.81
68456;BME280;55437;55.046;38.838;2023-05-20T02:37:24;100898.06;;;19.65;39.96
68456;BME280;55437;55.046;38.838;2023-05-20T02:39:50;100897.09;;;19.99;39.19
68456;BME280;55437;55.046;38.838;2023-05-20T02:42:16;100899.53;;;20.18;38.69
68456;BME280;55437;55.046;38.838;2023-05-20T02:44:42;100889.75;;;20.38;38.05
68456;BME280;55437;55.046;38.838;2023-05-20T02:47:08;100900.63;;;20.29;37.64
68456;BME280;55437;55.046;38.838;2023-05-20T02:49:34;100905.19;;;20.41;37.61
68456;BME280;55437;55.046;38.838;2023-05-20T02:52:01;100905.59;;;20.65;36.97
68456;BME280;55437;55.046;38.838;2023-05-20T02:54:26;100902.03;;;21.12;36.61
68456;BME280;55437;55.046;38.838;2023-05-20T02:56:52;100899.97;;;21.61;35.74
68456;BME280;55437;55.046;38.838;2023-05-20T02:59:18;100902.66;;;21.88;34.95
68456;BME280;55437;55.046;38.838;2023-05-20T03:01:44;100907.16;;;22.00;34.80
68456;BME280;55437;55.046;38.838;2023-05-20T03:04:09;100908.06;;;22.13;34.37
68456;BME280;55437;55.046;38.838;2023-05-20T03:06:36;100897.53;;;21.14;35.50
68456;BME280;55437;55.046;38.838;2023-05-20T03:09:03;100893.91;;;19.94;36.96
68456;BME280;55437;55.046;38.838;2023-05-20T03:11:30;100894.50;;;19.16;38.28
68456;BME280;55437;55.046;38.838;2023-05-20T03:13:55;100895.53;;;18.60;39.20
68456;BME280;55437;55.046;38.838;2023-05-20T03:16:21;100898.06;;;18.61;39.42
68456;BME280;55437;55.046;38.838;2023-05-20T03:18:49;100893.84;;;18.23;39.80
68456;BME280;55437;55.046;38.838;2023-05-20T03:21:15;100902.38;;;17.87;40.39
68456;BME280;55437;55.046;38.838;2023-05-20T03:23:42;100902.69;;;17.41;41.12
68456;BME280;55437;55.046;38.838;2023-05-20T03:26:07;100884.47;;;17.02;41.96
68456;BME280;55437;55.046;38.838;2023-05-20T03:28:34;100900.44;;;16.71;42.26
68456;BME280;55437;55.046;38.838;2023-05-20T03:31:00;100896.00;;;16.74;42.63
68456;BME280;55437;55.046;38.838;2023-05-20T03:33:28;100900.56;;;17.89;40.95
68456;BME280;55437;55.046;38.838;2023-05-20T03:35:56;100889.38;;;18.97;39.26
68456;BME280;55437;55.046;38.838;2023-05-20T03:38:21;100896.50;;;19.28;38.86
68456;BME280;55437;55.046;38.838;2023-05-20T03:40:47;100885.25;;;18.93;39.05
68456;BME280;55437;55.046;38.838;2023-05-20T03:43:13;100880.19;;;18.90;39.39
68456;BME280;55437;55.046;38.838;2023-05-20T03:45:38;100883.72;;;18.89;39.57
68456;BME280;55437;55.046;38.838;2023-05-20T03:48:06;100880.19;;;18.90;39.39
68456;BME280;55437;55.046;38.838;2023-05-20T03:50:33;100884.78;;;18.67;39.75
68456;BME280;55437;55.046;38.838;2023-05-20T03:52:59;100882.41;;;18.44;40.24
68456;BME280;55437;55.046;38.838;2023-05-20T03:55:25;100889.88;;;18.14;40.92
68456;BME280;55437;55.046;38.838;2023-05-20T03:57:53;100899.72;;;17.70;41.72
68456;BME280;55437;55.046;38.838;2023-05-20T04:00:19;100885.09;;;17.27;42.20
68456;BME280;55437;55.046;38.838;2023-05-20T04:02:47;100890.63;;;16.99;43.16
68456;BME280;55437;55.046;38.838;2023-05-20T04:05:16;100888.16;;;16.76;43.41
68456;BME280;55437;55.046;38.838;2023-05-20T04:07:42;100888.22;;;16.74;43.58
68456;BME280;55437;55.046;38.838;2023-05-20T04:10:08;100889.53;;;16.63;43.92
68456;BME280;55437;55.046;38.838;2023-05-20T04:12:34;100888.66;;;16.64;44.21
68456;BME280;55437;55.046;38.838;2023-05-20T04:15:02;100887.31;;;16.75;44.27
68456;BME280;55437;55.046;38.838;2023-05-20T04:17:36;100890.19;;;17.10;43.77
68456;BME280;55437;55.046;38.838;2023-05-20T04:20:03;100882.13;;;16.96;44.01
68456;BME280;55437;55.046;38.838;2023-05-20T04:22:33;100878.19;;;17.07;43.65
68456;BME280;55437;55.046;38.838;2023-05-20T04:24:59;100870.38;;;17.27;43.46
68456;BME280;55437;55.046;38.838;2023-05-20T04:27:25;100874.28;;;17.38;43.74
68456;BME280;55437;55.046;38.838;2023-05-20T04:29:51;100877.16;;;17.11;43.95
68456;BME280;55437;55.046;38.838;2023-05-20T04:32:18;100868.06;;;17.01;44.27
68456;BME280;55437;55.046;38.838;2023-05-20T04:34:44;100860.81;;;16.89;44.58
68456;BME280;55437;55.046;38.838;2023-05-20T04:37:12;100866.50;;;16.97;44.53
68456;BME280;55437;55.046;38.838;2023-05-20T04:39:39;100865.53;;;17.00;44.57
68456;BME280;55437;55.046;38.838;2023-05-20T04:42:07;100866.66;;;17.14;44.37
68456;BME280;55437;55.046;38.838;2023-05-20T04:44:33;100866.78;;;17.71;43.39
68456;BME280;55437;55.046;38.838;2023-05-20T04:46:59;100859.84;;;18.09;42.63
68456;BME280;55437;55.046;38.838;2023-05-20T04:49:25;100862.97;;;18.70;41.68
68456;BME280;55437;55.046;38.838;2023-05-20T04:51:51;100855.81;;;19.25;40.95
68456;BME280;55437;55.046;38.838;2023-05-20T04:54:19;100856.72;;;19.74;39.94
68456;BME280;55437;55.046;38.838;2023-05-20T04:56:46;100850.84;;;20.34;39.17
68456;BME280;55437;55.046;38.838;2023-05-20T04:59:13;100856.75;;;20.67;38.29
68456;BME280;55437;55.046;38.838;2023-05-20T05:01:39;100853.03;;;21.01;38.01
68456;BME280;55437;55.046;38.838;2023-05-20T05:04:05;100856.19;;;21.36;37.37
68456;BME280;55437;55.046;38.838;2023-05-20T05:06:31;100858.06;;;21.48;36.71
68456;BME280;55437;55.046;38.838;2023-05-20T05:08:57;100860.94;;;21.58;36.66
68456;BME280;55437;55.046;38.838;2023-05-20T05:11:24;100856.28;;;21.49;36.58
68456;BME280;55437;55.046;38.838;2023-05-20T05:13:51;100855.22;;;21.94;35.94
68456;BME280;55437;55.046;38.838;2023-05-20T05:16:19;100841.78;;;22.00;35.61
68456;BME280;55437;55.046;38.838;2023-05-20T05:18:45;100845.69;;;21.93;35.68
68456;BME280;55437;55.046;38.838;2023-05-20T05:21:10;100843.19;;;22.33;35.26
68456;BME280;55437;55.046;38.838;2023-05-20T05:23:39;100847.34;;;22.35;35.17
68456;BME280;55437;55.046;38.838;2023-05-20T05:26:09;100845.28;;;22.40;34.86
68456;BME280;55437;55.046;38.838;2023-05-20T05:28:35;100840.84;;;22.55;34.48
68456;BME280;55437;55.046;38.838;2023-05-20T05:31:00;100843.19;;;22.33;34.70
68456;BME280;55437;55.046;38.838;2023-05-20T05:33:29;100846.63;;;22.33;34.92
68456;BME280;55437;55.046;38.838;2023-05-20T05:35:55;100841.91;;;22.11;35.18
68456;BME280;55437;55.046;38.838;2023-05-20T05:38:23;100837.09;;;21.91;35.25
68456;BME280;55437;55.046;38.838;2023-05-20T05:40:49;100834.03;;;22.25;34.89
68456;BME280;55437;55.046;38.838;2023-05-20T05:43:16;100837.59;;;22.24;34.76
68456;BME280;55437;55.046;38.838;2023-05-20T05:45:43;100838.59;;;22.49;34.59
68456;BME280;55437;55.046;38.838;2023-05-20T05:48:08;100834.91;;;22.12;34.99
68456;BME280;55437;55.046;38.838;2023-05-20T05:50:34;100828.28;;;22.73;34.22
68456;BME280;55437;55.046;38.838;2023-05-20T05:53:00;100831.06;;;23.47;33.53
68456;BME280;55437;55.046;38.838;2023-05-20T05:55:26;100832.31;;;23.67;32.76
68456;BME280;55437;55.046;38.838;2023-05-20T05:57:53;100839.44;;;23.78;32.55
68456;BME280;55437;55.046;38.838;2023-05-20T06:00:19;100830.44;;;24.29;31.98
68456;BME280;55437;55.046;38.838;2023-05-20T06:02:46;100833.34;;;24.61;31.67
68456;BME280;55437;55.046;38.838;2023-05-20T06:05:20;100830.88;;;24.82;31.26
68456;BME280;55437;55.046;38.838;2023-05-20T06:07:47;100836.28;;;24.92;31.08
68456;BME280;55437;55.046;38.838;2023-05-20T06:10:13;100830.38;;;24.77;30.59
68456;BME280;55437;55.046;38.838;2023-05-20T06:12:39;100834.94;;;24.75;30.38
68456;BME280;55437;55.046;38.838;2023-05-20T06:15:06;100834.97;;;24.86;30.23
68456;BME280;55437;55.046;38.838;2023-05-20T06:17:35;100828.78;;;24.28;30.82
68456;BME280;55437;55.046;38.838;2023-05-20T06:20:01;100833.50;;;24.82;30.34
68456;BME280;55437;55.046;38.838;2023-05-20T06:22:28;100830.84;;;25.39;29.68
68456;BME280;55437;55.046;38.838;2023-05-20T06:24:55;100832.28;;;25.55;29.55
68456;BME280;55437;55.046;38.838;2023-05-20T06:27:21;100834.31;;;25.73;29.57
68456;BME280;55437;55.046;38.838;2023-05-20T06:29:48;100831.56;;;25.75;29.43
68456;BME280;55437;55.046;38.838;2023-05-20T06:32:13;100830.16;;;25.71;29.16
68456;BME280;55437;55.046;38.838;2023-05-20T06:34:39;100829.44;;;25.80;28.81
68456;BME280;55437;55.046;38.838;2023-05-20T06:37:05;100817.75;;;26.05;28.48
68456;BME280;55437;55.046;38.838;2023-05-20T06:39:32;100819.47;;;26.27;28.34
68456;BME280;55437;55.046;38.838;2023-05-20T06:41:58;100827.72;;;26.33;28.22
68456;BME280;55437;55.046;38.838;2023-05-20T06:44:27;100828.72;;;25.22;29.24
68456;BME280;55437;55.046;38.838;2023-05-20T06:46:59;100824.91;;;23.97;30.74
68456;BME280;55437;55.046;38.838;2023-05-20T06:49:25;100823.66;;;23.54;31.43
68456;BME280;55437;55.046;38.838;2023-05-20T06:51:50;100823.81;;;22.75;32.41
68456;BME280;55437;55.046;38.838;2023-05-20T06:54:16;100821.91;;;22.64;32.53
68456;BME280;55437;55.046;38.838;2023-05-20T06:56:45;100822.16;;;23.37;31.94
68456;BME280;55437;55.046;38.838;2023-05-20T06:59:12;100824.03;;;24.33;31.60
68456;BME280;55437;55.046;38.838;2023-05-20T07:01:40;100821.03;;;24.27;31.54
68456;BME280;55437;55.046;38.838;2023-05-20T07:04:06;100824.56;;;24.02;31.74
68456;BME280;55437;55.046;38.838;2023-05-20T07:06:32;100830.16;;;23.23;32.88
68456;BME280;55437;55.046;38.838;2023-05-20T07:08:59;100822.72;;;22.25;33.90
68456;BME280;55437;55.046;38.838;2023-05-20T07:11:26;100812.72;;;22.32;34.47
68456;BME280;55437;55.046;38.838;2023-05-20T07:13:51;100808.81;;;22.64;34.02
68456;BME280;55437;55.046;38.838;2023-05-20T07:16:18;100819.69;;;22.71;33.38
68456;BME280;55437;55.046;38.838;2023-05-20T07:18:49;100808.78;;;23.04;32.67
68456;BME280;55437;55.046;38.838;2023-05-20T07:21:40;100810.81;;;22.73;33.17
68456;BME280;55437;55.046;38.838;2023-05-20T07:24:41;100805.91;;;22.02;34.17
68456;BME280;55437;55.046;38.838;2023-05-20T07:27:08;100808.19;;;21.80;34.80
68456;BME280;55437;55.046;38.838;2023-05-20T07:29:37;100807.72;;;22.41;34.45
68456;BME280;55437;55.046;38.838;2023-05-20T07:32:03;100808.13;;;23.25;33.56
68456;BME280;55437;55.046;38.838;2023-05-20T07:34:33;100801.66;;;23.18;33.68
68456;BME280;55437;55.046;38.838;2023-05-20T07:36:59;100809.81;;;22.88;33.96
68456;BME280;55437;55.046;38.838;2023-05-20T07:39:25;100802.50;;;22.14;34.41
68456;BME280;55437;55.046;38.838;2023-05-20T07:41:51;100807.94;;;22.51;34.75
68456;BME280;55437;55.046;38.838;2023-05-20T07:44:17;100810.94;;;23.35;33.52
68456;BME280;55437;55.046;38.838;2023-05-20T07:46:50;100809.13;;;24.34;32.36
68456;BME280;55437;55.046;38.838;2023-05-20T07:49:18;100804.44;;;25.07;32.07
68456;BME280;55437;55.046;38.838;2023-05-20T07:51:44;100813.97;;;24.51;32.41
68456;BME280;55437;55.046;38.838;2023-05-20T07:54:13;100805.09;;;23.81;33.04
68456;BME280;55437;55.046;38.838;2023-05-20T07:56:40;100798.59;;;23.24;33.85
68456;BME280;55437;55.046;38.838;2023-05-20T07:59:07;100800.19;;;22.49;34.27
68456;BME280;55437;55.046;38.838;2023-05-20T08:01:40;100801.84;;;22.11;34.49
68456;BME280;55437;55.046;38.838;2023-05-20T08:04:07;100805.25;;;22.25;35.05
68456;BME280;55437;55.046;38.838;2023-05-20T08:06:35;100801.94;;;23.39;34.08
68456;BME280;55437;55.046;38.838;2023-05-20T08:09:03;100803.44;;;23.30;33.30
68456;BME280;55437;55.046;38.838;2023-05-20T08:11:33;100803.19;;;23.46;33.04
68456;BME280;55437;55.046;38.838;2023-05-20T08:13:59;100801.13;;;23.13;33.15
68456;BME280;55437;55.046;38.838;2023-05-20T08:16:29;100788.44;;;23.07;33.05
68456;BME280;55437;55.046;38.838;2023-05-20T08:18:55;100795.00;;;23.63;32.39
68456;BME280;55437;55.046;38.838;2023-05-20T08:21:21;100781.25;;;23.96;31.94
68456;BME280;55437;55.046;38.838;2023-05-20T08:23:47;100787.47;;;23.83;32.04
68456;BME280;55437;55.046;38.838;2023-05-20T08:26:12;100789.81;;;23.13;32.74
68456;BME280;55437;55.046;38.838;2023-05-20T08:28:40;100794.78;;;22.25;34.35
68456;BME280;55437;55.046;38.838;2023-05-20T08:31:06;100793.97;;;21.84;34.59
68456;BME280;55437;55.046;38.838;2023-05-20T08:33:32;100797.13;;;21.34;34.89
68456;BME280;55437;55.046;38.838;2023-05-20T08:35:58;100782.69;;;20.70;35.69
68456;BME280;55437;55.046;38.838;2023-05-20T08:38:24;100779.25;;;20.39;36.54
68456;BME280;55437;55.046;38.838;2023-05-20T08:40:54;100780.50;;;20.17;37.19
68456;BME280;55437;55.046;38.838;2023-05-20T08:43:22;100779.94;;;20.11;37.41
68456;BME280;55437;55.046;38.838;2023-05-20T08:45:48;100783.25;;;19.99;37.43
68456;BME280;55437;55.046;38.838;2023-05-20T08:48:17;100786.69;;;19.68;37.48
68456;BME280;55437;55.046;38.838;2023-05-20T08:50:47;100782.22;;;19.06;38.21
68456;BME280;55437;55.046;38.838;2023-05-20T08:53:14;100772.66;;;18.72;39.05
68456;BME280;55437;55.046;38.838;2023-05-20T08:55:54;100784.31;;;18.65;39.47
68456;BME280;55437;55.046;38.838;2023-05-20T08:58:22;100777.41;;;18.64;39.20
68456;BME280;55437;55.046;38.838;2023-05-20T09:00:50;100782.13;;;18.56;39.54
68456;BME280;55437;55.046;38.838;2023-05-20T09:03:17;100777.75;;;18.39;39.52
68456;BME280;55437;55.046;38.838;2023-05-20T09:05:45;100772.56;;;18.22;39.77
68456;BME280;55437;55.046;38.838;2023-05-20T09:08:11;100782.72;;;18.09;40.30
68456;BME280;55437;55.046;38.838;2023-05-20T09:10:38;100788.63;;;17.94;40.60
68456;BME280;55437;55.046;38.838;2023-05-20T09:13:05;100797.88;;;17.99;40.19
68456;BME280;55437;55.046;38.838;2023-05-20T09:15:32;100785.25;;;18.11;39.94
68456;BME280;55437;55.046;38.838;2023-05-20T09:18:02;100782.25;;;18.18;39.63
68456;BME280;55437;55.046;38.838;2023-05-20T09:20:28;100780.03;;;18.28;39.18
68456;BME280;55437;55.046;38.838;2023-05-20T09:23:00;100781.34;;;18.36;39.26
68456;BME280;55437;55.046;38.838;2023-05-20T09:25:26;100784.44;;;18.45;39.37
68456;BME280;55437;55.046;38.838;2023-05-20T09:27:52;100788.75;;;18.63;39.25
68456;BME280;55437;55.046;38.838;2023-05-20T09:30:19;100782.25;;;18.72;39.33
68456;BME280;55437;55.046;38.838;2023-05-20T09:32:55;100785.66;;;18.89;39.11
68456;BME280;55437;55.046;38.838;2023-05-20T09:35:21;100784.34;;;18.98;38.99
68456;BME280;55437;55.046;38.838;2023-05-20T09:37:51;100789.31;;;19.02;39.18
68456;BME280;55437;55.046;38.838;2023-05-20T09:40:22;100779.69;;;19.04;38.53
68456;BME280;55437;55.046;38.838;2023-05-20T09:42:53;100787.78;;;19.16;38.24
68456;BME280;55437;55.046;38.838;2023-05-20T09:45:21;100792.06;;;18.99;38.33
68456;BME280;55437;55.046;38.838;2023-05-20T09:47:50;100788.78;;;18.96;38.69
68456;BME280;55437;55.046;38.838;2023-05-20T09:50:18;100789.81;;;18.76;38.98
68456;BME280;55437;55.046;38.838;2023-05-20T09:52:46;100790.09;;;18.53;39.42
68456;BME280;55437;55.046;38.838;2023-05-20T09:55:13;100794.44;;;18.35;39.75
68456;BME280;55437;55.046;38.838;2023-05-20T09:57:39;100796.50;;;18.28;39.72
68456;BME280;55437;55.046;38.838;2023-05-20T10:00:06;100798.47;;;18.23;40.01
68456;BME280;55437;55.046;38.838;2023-05-20T10:02:43;100800.06;;;18.26;39.85
68456;BME280;55437;55.046;38.838;2023-05-20T10:05:18;100802.53;;;18.29;39.90
68456;BME280;55437;55.046;38.838;2023-05-20T10:21:21;100801.97;;;18.93;37.93
68456;BME280;55437;55.046;38.838;2023-05-20T10:23:52;100800.50;;;19.04;37.94
68456;BME280;55437;55.046;38.838;2023-05-20T10:26:18;100807.47;;;19.04;38.35
68456;BME280;55437;55.046;38.838;2023-05-20T10:28:45;100796.50;;;19.15;38.43
68456;BME280;55437;55.046;38.838;2023-05-20T10:31:43;100798.19;;;19.16;38.02
68456;BME280;55437;55.046;38.838;2023-05-20T10:34:18;100797.25;;;19.17;38.21
68456;BME280;55437;55.046;38.838;2023-05-20T10:39:29;100800.50;;;19.04;38.27
68456;BME280;55437;55.046;38.838;2023-05-20T10:42:06;100809.75;;;19.10;38.52
68456;BME280;55437;55.046;38.838;2023-05-20T10:44:45;100799.72;;;19.02;38.84
68456;BME280;55437;55.046;38.838;2023-05-20T10:47:30;100803.19;;;19.03;38.70
68456;BME280;55437;55.046;38.838;2023-05-20T10:49:56;100804.56;;;18.93;38.29
68456;BME280;55437;55.046;38.838;2023-05-20T10:52:32;100801.22;;;18.91;38.16
68456;BME280;55437;55.046;38.838;2023-05-20T10:54:59;100814.69;;;18.82;38.43
68456;BME280;55437;55.046;38.838;2023-05-20T10:57:26;100805.88;;;18.67;37.94
68456;BME280;55437;55.046;38.838;2023-05-20T10:59:54;100808.03;;;18.59;37.72
68456;BME280;55437;55.046;38.838;2023-05-20T11:02:20;100812.59;;;18.54;37.32
68456;BME280;55437;55.046;38.838;2023-05-20T11:04:55;100816.63;;;18.42;38.31
68456;BME280;55437;55.046;38.838;2023-05-20T11:07:28;100817.66;;;18.21;39.51
68456;BME280;55437;55.046;38.838;2023-05-20T11:09:55;100817.28;;;18.11;39.87
68456;BME280;55437;55.046;38.838;2023-05-20T11:12:22;100824.44;;;17.87;40.75
68456;BME280;55437;55.046;38.838;2023-05-20T11:14:49;100819.72;;;17.77;40.61
68456;BME280;55437;55.046;38.838;2023-05-20T11:17:15;100821.19;;;17.63;41.28
68456;BME280;55437;55.046;38.838;2023-05-20T11:19:41;100827.75;;;17.52;41.50
68456;BME280;55437;55.046;38.838;2023-05-20T11:22:07;100828.88;;;17.46;42.17
68456;BME280;55437;55.046;38.838;2023-05-20T11:24:33;100824.88;;;17.39;42.35
68456;BME280;55437;55.046;38.838;2023-05-20T11:27:00;100835.47;;;17.35;42.75
68456;BME280;55437;55.046;38.838;2023-05-20T11:29:27;100835.59;;;17.32;43.25
68456;BME280;55437;55.046;38.838;2023-05-20T11:31:53;100834.56;;;17.15;43.65
68456;BME280;55437;55.046;38.838;2023-05-20T11:34:20;100845.34;;;17.06;44.21
68456;BME280;55437;55.046;38.838;2023-05-20T11:36:47;100836.84;;;17.03;44.33
68456;BME280;55437;55.046;38.838;2023-05-20T11:39:31;100842.03;;;17.03;44.72
68456;BME280;55437;55.046;38.838;2023-05-20T11:42:19;100839.84;;;16.93;44.94
68456;BME280;55437;55.046;38.838;2023-05-20T11:44:45;100836.78;;;16.84;45.13
68456;BME280;55437;55.046;38.838;2023-05-20T11:47:13;100833.09;;;16.89;45.08
68456;BME280;55437;55.046;38.838;2023-05-20T11:49:41;100839.94;;;16.90;44.91
68456;BME280;55437;55.046;38.838;2023-05-20T11:52:08;100844.38;;;16.88;44.98
68456;BME280;55437;55.046;38.838;2023-05-20T11:54:41;100839.38;;;16.84;44.69
68456;BME280;55437;55.046;38.838;2023-05-20T11:57:29;100838.59;;;16.82;44.36
68456;BME280;55437;55.046;38.838;2023-05-20T12:00:29;100836.06;;;16.80;44.61
68456;BME280;55437;55.046;38.838;2023-05-20T12:03:52;100835.38;;;16.97;44.67
68456;BME280;55437;55.046;38.838;2023-05-20T12:06:28;100839.91;;;17.12;44.23
68456;BME280;55437;55.046;38.838;2023-05-20T12:09:23;100832.75;;;17.17;43.30
68456;BME280;55437;55.046;38.838;2023-05-20T12:12:43;100841.81;;;17.27;41.99
68456;BME280;55437;55.046;38.838;2023-05-20T12:15:12;100829.63;;;17.29;41.23
68456;BME280;55437;55.046;38.838;2023-05-20T12:17:51;100831.00;;;17.38;40.52
68456;BME280;55437;55.046;38.838;2023-05-20T12:20:24;100835.06;;;17.44;40.31
68456;BME280;55437;55.046;38.838;2023-05-20T12:22:51;100837.53;;;17.47;40.27
68456;BME280;55437;55.046;38.838;2023-05-20T12:25:18;100839.16;;;17.49;39.96
68456;BME280;55437;55.046;38.838;2023-05-20T12:27:46;100833.47;;;17.60;39.92
68456;BME280;55437;55.046;38.838;2023-05-20T12:30:18;100841.66;;;17.71;40.08
68456;BME280;55437;55.046;38.838;2023-05-20T12:32:44;100839.63;;;17.57;40.68
68456;BME280;55437;55.046;38.838;2023-05-20T12:35:11;100831.00;;;17.57;41.13
68456;BME280;55437;55.046;38.838;2023-05-20T12:37:39;100836.25;;;17.55;41.58
68456;BME280;55437;55.046;38.838;2023-05-20T12:40:10;100839.38;;;17.63;41.91
68456;BME280;55437;55.046;38.838;2023-05-20T12:42:38;100837.44;;;17.69;42.18
68456;BME280;55437;55.046;38.838;2023-05-20T12:45:04;100834.97;;;17.66;42.42
68456;BME280;55437;55.046;38.838;2023-05-20T12:47:31;100841.25;;;17.60;42.84
68456;BME280;55437;55.046;38.838;2023-05-20T12:49:57;100832.88;;;17.53;42.96
68456;BME280;55437;55.046;38.838;2023-05-20T12:52:24;100833.47;;;17.60;42.72
68456;BME280;55437;55.046;38.838;2023-05-20T12:54:50;100832.69;;;17.58;42.45
68456;BME280;55437;55.046;38.838;2023-05-20T12:57:16;100832.28;;;17.48;42.57
68456;BME280;55437;55.046;38.838;2023-05-20T13:00:00;100831.78;;;17.59;42.35
68456;BME280;55437;55.046;38.838;2023-05-20T13:02:26;100834.25;;;17.62;42.52